createdAt,value
2019-01-30T00:00:47.080Z,-3.70
2019-01-30T00:03:35.322Z,-3.70
2019-01-30T00:06:23.508Z,-3.70
2019-01-30T00:09:11.393Z,-3.70
2019-01-30T00:11:59.253Z,-3.70
2019-01-30T00:14:47.083Z,-3.70
2019-01-30T00:17:34.987Z,-3.60
2019-01-30T00:20:23.060Z,-3.60
2019-01-30T00:23:10.892Z,-3.60
2019-01-30T00:25:58.788Z,-3.50
2019-01-30T00:28:46.346Z,-3.50
2019-01-30T00:31:34.417Z,-3.40
2019-01-30T00:34:22.102Z,-3.40
2019-01-30T00:37:09.971Z,-3.30
2019-01-30T00:39:57.734Z,-3.20
2019-01-30T00:42:45.603Z,-3.10
2019-01-30T00:45:33.467Z,-3.10
2019-01-30T00:48:21.408Z,-3.00
2019-01-30T00:51:09.115Z,-3.10
2019-01-30T00:53:56.922Z,-3.10
2019-01-30T00:56:44.683Z,-3.20
2019-01-30T00:59:32.364Z,-3.10
2019-01-30T01:02:20.303Z,-2.90
2019-01-30T01:05:08.143Z,-2.90
2019-01-30T01:07:56.008Z,-2.90
2019-01-30T01:10:43.879Z,-2.90
2019-01-30T01:13:31.856Z,-3.20
2019-01-30T01:16:19.340Z,-3.30
2019-01-30T01:19:07.264Z,-3.50
2019-01-30T01:21:55.117Z,-3.60
2019-01-30T01:24:43.220Z,-3.50
2019-01-30T01:27:31.007Z,-3.50
2019-01-30T01:30:25.647Z,-3.50
2019-01-30T01:33:13.449Z,-3.50
2019-01-30T01:36:01.228Z,-3.60
2019-01-30T01:38:49.381Z,-3.60
2019-01-30T01:41:37.584Z,-3.30
2019-01-30T01:44:25.224Z,-3.20
2019-01-30T01:47:13.038Z,-3.20
2019-01-30T01:50:00.975Z,-3.30
2019-01-30T01:52:49.122Z,-3.30
2019-01-30T01:55:37.086Z,-3.20
2019-01-30T01:58:24.745Z,-3.00
2019-01-30T02:01:12.649Z,-2.80
2019-01-30T02:04:00.870Z,-2.80
2019-01-30T02:06:48.672Z,-2.80
2019-01-30T02:09:36.547Z,-2.80
2019-01-30T02:12:24.602Z,-2.70
2019-01-30T02:15:15.696Z,-2.60
2019-01-30T02:18:46.085Z,-2.40
2019-01-30T02:25:36.094Z,-2.40
2019-01-30T02:31:36.094Z,-2.10
2019-01-30T02:34:25.155Z,-2.10
2019-01-30T02:37:12.776Z,-2.00
2019-01-30T02:40:00.706Z,-2.00
2019-01-30T02:42:48.840Z,-2.20
2019-01-30T02:45:36.556Z,-2.00
2019-01-30T02:48:24.638Z,-2.00
2019-01-30T02:51:12.409Z,-1.90
2019-01-30T02:54:00.489Z,-1.90
2019-01-30T02:56:48.390Z,-1.70
2019-01-30T02:59:36.085Z,-1.60
2019-01-30T03:02:24.045Z,-1.60
2019-01-30T03:05:13.532Z,-1.60
2019-01-30T03:08:00.980Z,-1.50
2019-01-30T03:10:48.805Z,-1.50
2019-01-30T03:13:36.687Z,-1.60
2019-01-30T03:16:24.860Z,-1.50
2019-01-30T03:19:12.800Z,-1.50
2019-01-30T03:22:00.708Z,-1.50
2019-01-30T03:24:48.433Z,-1.50
2019-01-30T03:27:36.493Z,-1.40
2019-01-30T03:30:26.910Z,-1.50
2019-01-30T03:33:14.977Z,-1.50
2019-01-30T03:36:02.853Z,-1.30
2019-01-30T03:38:50.452Z,-1.30
2019-01-30T03:41:38.100Z,-1.30
2019-01-30T03:44:26.001Z,-1.30
2019-01-30T03:47:13.894Z,-1.20
2019-01-30T03:50:01.681Z,-1.20
2019-01-30T03:52:49.487Z,-1.20
2019-01-30T03:55:37.116Z,-1.20
2019-01-30T04:07:40.665Z,-1.00
2019-01-30T04:29:01.538Z,-0.80
2019-01-30T04:31:49.272Z,-0.80
2019-01-30T04:34:37.180Z,-0.80
2019-01-30T04:37:25.424Z,-0.70
2019-01-30T04:40:15.844Z,-0.70
2019-01-30T04:43:03.778Z,-0.70
2019-01-30T04:45:51.481Z,-0.60
2019-01-30T04:48:39.426Z,-0.60
2019-01-30T04:51:27.455Z,-0.60
2019-01-30T04:54:15.280Z,-0.50
2019-01-30T04:57:03.007Z,-0.50
2019-01-30T04:59:50.993Z,-0.50
2019-01-30T05:02:38.978Z,-0.50
2019-01-30T05:05:26.629Z,-0.50
2019-01-30T05:08:14.557Z,-0.50
2019-01-30T05:11:02.462Z,-0.40
2019-01-30T05:13:50.920Z,-0.40
2019-01-30T05:16:38.820Z,-0.30
2019-01-30T05:19:26.405Z,-0.20
2019-01-30T05:22:14.477Z,-0.20
2019-01-30T05:25:02.077Z,-0.10
2019-01-30T05:27:49.710Z,0.00
2019-01-30T05:30:37.690Z,0.00
2019-01-30T05:33:25.694Z,0.00
2019-01-30T05:36:13.605Z,-0.10
2019-01-30T05:39:01.200Z,-0.10
2019-01-30T05:41:49.025Z,-0.10
2019-01-30T05:44:36.781Z,-0.20
2019-01-30T05:47:24.354Z,-0.10
2019-01-30T05:50:13.627Z,-0.20
2019-01-30T05:53:01.184Z,-0.20
2019-01-30T05:55:50.787Z,-0.20
2019-01-30T05:58:40.634Z,-0.20
2019-01-30T06:01:28.416Z,-0.20
2019-01-30T06:04:16.496Z,-0.20
2019-01-30T06:07:04.506Z,-0.20
2019-01-30T06:09:52.604Z,-0.20
2019-01-30T06:12:40.544Z,-0.20
2019-01-30T06:15:28.984Z,-0.20
2019-01-30T06:18:16.603Z,-0.20
2019-01-30T06:21:04.652Z,-0.20
2019-01-30T06:23:52.567Z,-0.10
2019-01-30T06:26:40.513Z,-0.10
2019-01-30T06:29:28.317Z,-0.10
2019-01-30T06:32:21.833Z,-0.10
2019-01-30T06:35:06.818Z,-0.10
2019-01-30T06:37:54.560Z,0.00
2019-01-30T06:40:42.189Z,0.00
2019-01-30T06:43:29.841Z,0.00
2019-01-30T06:46:17.846Z,0.00
2019-01-30T06:49:05.577Z,0.10
2019-01-30T06:51:53.458Z,0.20
2019-01-30T06:54:41.213Z,0.30
2019-01-30T06:57:28.864Z,0.40
2019-01-30T07:00:20.080Z,0.50
2019-01-30T07:03:07.798Z,0.50
2019-01-30T07:05:55.665Z,0.50
2019-01-30T07:08:43.486Z,0.40
2019-01-30T07:11:31.297Z,0.40
2019-01-30T07:14:18.924Z,0.40
2019-01-30T07:17:06.627Z,0.40
2019-01-30T07:19:54.773Z,0.50
2019-01-30T07:22:42.748Z,0.50
2019-01-30T07:25:30.526Z,0.50
2019-01-30T07:28:18.436Z,0.50
2019-01-30T07:31:06.437Z,0.60
2019-01-30T07:33:54.258Z,0.60
2019-01-30T07:36:41.790Z,0.70
2019-01-30T07:39:29.648Z,0.80
2019-01-30T07:42:17.798Z,0.80
2019-01-30T07:45:08.496Z,0.80
2019-01-30T07:47:56.052Z,0.80
2019-01-30T07:50:43.776Z,1.00
2019-01-30T07:53:31.680Z,1.10
2019-01-30T07:56:19.483Z,1.00
2019-01-30T07:59:07.177Z,1.00
2019-01-30T08:01:55.083Z,1.10
2019-01-30T08:04:42.852Z,1.20
2019-01-30T08:07:32.377Z,1.30
2019-01-30T08:10:20.216Z,1.40
2019-01-30T08:13:07.764Z,1.50
2019-01-30T08:15:55.681Z,1.60
2019-01-30T08:18:43.328Z,1.60
2019-01-30T08:21:31.107Z,1.70
2019-01-30T08:24:18.963Z,1.80
2019-01-30T08:27:06.851Z,1.90
2019-01-30T08:29:55.197Z,1.90
2019-01-30T08:32:43.074Z,2.00
2019-01-30T08:35:32.729Z,2.20
2019-01-30T08:38:20.566Z,2.30
2019-01-30T08:41:08.375Z,2.40
2019-01-30T08:43:57.978Z,2.40
2019-01-30T08:46:45.392Z,2.40
2019-01-30T08:49:33.304Z,2.50
2019-01-30T08:52:21.094Z,2.70
2019-01-30T08:55:11.030Z,2.80
2019-01-30T08:57:58.639Z,2.90
2019-01-30T09:00:46.277Z,3.00
2019-01-30T09:03:33.858Z,3.10
2019-01-30T09:06:21.713Z,3.30
2019-01-30T09:09:09.505Z,3.50
2019-01-30T09:11:57.786Z,3.70
2019-01-30T09:14:45.574Z,3.70
2019-01-30T09:17:33.480Z,3.80
2019-01-30T09:20:23.008Z,3.80
2019-01-30T09:23:10.593Z,3.90
2019-01-30T09:25:58.623Z,4.20
2019-01-30T09:28:46.349Z,4.30
2019-01-30T09:31:34.163Z,4.50
2019-01-30T09:34:21.936Z,4.60
2019-01-30T09:37:09.932Z,4.60
2019-01-30T09:39:57.848Z,4.50
2019-01-30T09:42:45.905Z,4.60
2019-01-30T09:45:33.636Z,4.60
2019-01-30T09:48:21.325Z,4.70
2019-01-30T09:51:09.241Z,4.90
2019-01-30T09:53:57.675Z,5.00
2019-01-30T09:56:45.320Z,5.10
2019-01-30T09:59:33.029Z,5.10
2019-01-30T10:02:20.933Z,5.10
2019-01-30T10:05:11.676Z,5.10
2019-01-30T10:07:59.205Z,5.20
2019-01-30T10:10:46.780Z,5.20
2019-01-30T10:13:34.504Z,5.30
2019-01-30T10:16:22.137Z,5.50
2019-01-30T10:19:10.022Z,5.70
2019-01-30T10:21:57.844Z,5.90
2019-01-30T10:24:45.768Z,6.10
2019-01-30T10:27:33.525Z,6.20
2019-01-30T10:30:33.416Z,6.40
2019-01-30T10:33:20.970Z,6.40
2019-01-30T10:36:08.917Z,6.50
2019-01-30T10:38:56.825Z,6.30
2019-01-30T10:41:44.683Z,6.20
2019-01-30T10:44:32.217Z,6.10
2019-01-30T10:47:19.868Z,6.20
2019-01-30T10:50:10.753Z,6.40
2019-01-30T10:52:58.698Z,6.50
2019-01-30T10:55:46.544Z,6.30
2019-01-30T10:58:34.320Z,6.10
2019-01-30T11:01:22.188Z,5.80
2019-01-30T11:04:09.771Z,5.70
2019-01-30T11:06:57.897Z,5.70
2019-01-30T11:09:45.772Z,5.70
2019-01-30T11:12:33.808Z,5.80
2019-01-30T11:15:27.380Z,5.80
2019-01-30T11:18:16.131Z,5.80
2019-01-30T11:21:05.983Z,5.80
2019-01-30T11:23:53.591Z,5.90
2019-01-30T11:26:41.449Z,6.00
2019-01-30T11:29:29.300Z,6.00
2019-01-30T11:32:16.893Z,6.10
2019-01-30T11:35:06.688Z,6.30
2019-01-30T11:37:54.543Z,6.20
2019-01-30T11:40:42.508Z,6.20
2019-01-30T11:43:30.153Z,6.10
2019-01-30T11:46:17.963Z,6.10
2019-01-30T11:49:05.933Z,6.30
2019-01-30T11:51:53.897Z,6.30
2019-01-30T11:54:41.700Z,6.40
2019-01-30T11:57:29.564Z,6.50
2019-01-30T12:00:30.853Z,6.50
2019-01-30T12:03:18.436Z,6.50
2019-01-30T12:06:06.488Z,6.50
2019-01-30T12:08:54.377Z,6.50
2019-01-30T12:11:41.955Z,6.30
2019-01-30T12:14:29.579Z,6.20
2019-01-30T12:17:17.338Z,6.10
2019-01-30T12:20:08.252Z,5.90
2019-01-30T12:22:56.008Z,5.80
2019-01-30T12:25:43.981Z,5.60
2019-01-30T12:28:31.570Z,5.60
2019-01-30T12:31:19.458Z,5.50
2019-01-30T12:34:07.626Z,5.50
2019-01-30T12:36:55.329Z,5.50
2019-01-30T12:39:42.944Z,5.40
2019-01-30T12:42:31.004Z,5.10
2019-01-30T12:45:21.909Z,4.90
2019-01-30T12:48:10.851Z,4.80
2019-01-30T12:50:58.681Z,4.90
2019-01-30T12:53:46.505Z,5.00
2019-01-30T12:56:34.236Z,5.00
2019-01-30T12:59:22.148Z,5.00
2019-01-30T13:02:10.093Z,5.00
2019-01-30T13:04:58.095Z,5.00
2019-01-30T13:07:45.723Z,5.20
2019-01-30T13:10:33.580Z,5.70
2019-01-30T13:13:21.511Z,6.20
2019-01-30T13:16:09.096Z,6.40
2019-01-30T13:21:44.379Z,6.50
2019-01-30T13:24:32.232Z,6.40
2019-01-30T13:27:20.400Z,6.40
2019-01-30T13:30:14.164Z,6.40
2019-01-30T13:33:03.460Z,6.50
2019-01-30T13:35:51.296Z,6.50
2019-01-30T13:38:39.031Z,6.50
2019-01-30T13:41:26.925Z,6.60
2019-01-30T13:44:14.924Z,6.60
2019-01-30T13:47:02.768Z,6.70
2019-01-30T13:49:50.300Z,6.80
2019-01-30T13:52:38.232Z,6.70
2019-01-30T13:55:26.561Z,6.70
2019-01-30T13:58:14.216Z,6.80
2019-01-30T14:01:02.262Z,6.50
2019-01-30T14:03:49.907Z,6.20
2019-01-30T14:06:38.073Z,6.00
2019-01-30T14:09:25.986Z,5.80
2019-01-30T14:12:14.012Z,5.70
2019-01-30T14:15:01.758Z,5.50
2019-01-30T14:17:49.834Z,5.20
2019-01-30T14:20:37.480Z,4.90
2019-01-30T14:23:25.236Z,4.70
2019-01-30T14:26:13.036Z,4.60
2019-01-30T14:29:01.057Z,4.60
2019-01-30T14:31:48.874Z,4.60
2019-01-30T14:34:36.901Z,4.60
2019-01-30T14:37:24.900Z,4.60
2019-01-30T14:40:18.391Z,4.60
2019-01-30T14:43:06.265Z,4.70
2019-01-30T14:45:53.912Z,4.70
2019-01-30T14:48:41.919Z,4.90
2019-01-30T14:51:29.705Z,5.00
2019-01-30T14:54:17.771Z,5.10
2019-01-30T14:57:05.575Z,5.30
2019-01-30T14:59:53.496Z,5.30
2019-01-30T15:02:41.353Z,5.20
2019-01-30T15:05:30.326Z,5.00
2019-01-30T15:08:18.017Z,4.90
2019-01-30T15:11:05.956Z,4.80
2019-01-30T15:13:53.582Z,4.70
2019-01-30T15:16:41.350Z,4.40
2019-01-30T15:19:29.110Z,4.30
2019-01-30T15:22:16.740Z,4.30
2019-01-30T15:25:07.817Z,4.30
2019-01-30T15:27:56.306Z,4.30
2019-01-30T15:30:45.044Z,4.30
2019-01-30T15:33:32.767Z,4.20
2019-01-30T15:36:20.684Z,4.00
2019-01-30T15:39:09.108Z,3.90
2019-01-30T15:41:57.144Z,3.90
2019-01-30T15:44:45.096Z,3.90
2019-01-30T15:47:32.841Z,3.90
2019-01-30T15:50:40.944Z,3.90
2019-01-30T15:53:28.696Z,3.90
2019-01-30T15:56:16.380Z,3.80
2019-01-30T15:59:04.476Z,3.70
2019-01-30T16:01:52.044Z,3.70
2019-01-30T16:04:39.668Z,3.60
2019-01-30T16:07:27.697Z,3.50
2019-01-30T16:10:15.987Z,3.50
2019-01-30T16:13:04.516Z,3.50
2019-01-30T16:15:55.216Z,3.50
2019-01-30T16:18:42.935Z,3.40
2019-01-30T16:21:31.068Z,3.40
2019-01-30T16:24:18.924Z,3.30
2019-01-30T16:27:06.906Z,3.30
2019-01-30T16:29:54.509Z,3.30
2019-01-30T16:32:42.417Z,3.30
2019-01-30T16:35:33.540Z,3.30
2019-01-30T16:38:21.092Z,3.30
2019-01-30T16:41:09.000Z,3.20
2019-01-30T16:43:56.876Z,3.20
2019-01-30T16:46:44.480Z,3.20
2019-01-30T16:49:32.029Z,3.20
2019-01-30T16:52:19.947Z,3.20
2019-01-30T16:55:09.561Z,3.20
2019-01-30T16:57:57.557Z,3.10
2019-01-30T17:00:46.756Z,3.10
2019-01-30T17:03:34.892Z,3.10
2019-01-30T17:06:22.551Z,3.10
2019-01-30T17:09:10.822Z,3.00
2019-01-30T17:11:58.520Z,3.00
2019-01-30T17:14:46.080Z,3.00
2019-01-30T17:17:33.964Z,2.90
2019-01-30T17:20:27.424Z,2.90
2019-01-30T17:23:15.388Z,2.80
2019-01-30T17:26:02.948Z,2.80
2019-01-30T17:28:50.480Z,2.80
2019-01-30T17:31:38.444Z,2.80
2019-01-30T17:34:26.469Z,2.80
2019-01-30T17:37:14.177Z,2.80
2019-01-30T17:40:02.649Z,2.80
2019-01-30T17:42:50.735Z,2.80
2019-01-30T17:45:38.638Z,2.70
2019-01-30T17:48:26.199Z,2.80
2019-01-30T17:51:14.058Z,2.70
2019-01-30T17:54:01.693Z,2.60
2019-01-30T17:56:49.723Z,2.60
2019-01-30T17:59:37.630Z,2.60
2019-01-30T18:02:25.621Z,2.60
2019-01-30T18:05:13.528Z,2.60
2019-01-30T18:08:01.592Z,2.60
2019-01-30T18:10:49.229Z,2.60
2019-01-30T18:13:37.200Z,2.60
2019-01-30T18:16:26.840Z,2.50
2019-01-30T18:19:14.866Z,2.40
2019-01-30T18:22:02.479Z,2.40
2019-01-30T18:24:50.302Z,2.30
2019-01-30T18:27:38.128Z,2.20
2019-01-30T18:30:26.221Z,2.10
2019-01-30T18:33:13.917Z,2.00
2019-01-30T18:36:01.631Z,1.90
2019-01-30T18:38:49.545Z,1.80
2019-01-30T18:41:37.581Z,1.60
2019-01-30T18:44:25.323Z,1.60
2019-01-30T18:47:13.247Z,1.70
2019-01-30T18:50:01.130Z,1.70
2019-01-30T18:52:49.127Z,1.70
2019-01-30T18:55:37.032Z,1.80
2019-01-30T18:58:24.876Z,1.70
2019-01-30T19:01:12.664Z,1.60
2019-01-30T19:04:00.310Z,1.60
2019-01-30T19:06:52.375Z,1.50
2019-01-30T19:09:37.735Z,1.50
2019-01-30T19:12:25.590Z,1.50
2019-01-30T19:15:19.381Z,1.50
2019-01-30T19:18:07.710Z,1.50
2019-01-30T19:20:55.654Z,1.30
2019-01-30T19:23:43.472Z,1.20
2019-01-30T19:26:31.205Z,1.30
2019-01-30T19:29:18.968Z,1.20
2019-01-30T19:32:06.578Z,1.40
2019-01-30T19:34:54.400Z,1.30
2019-01-30T19:37:42.289Z,1.30
2019-01-30T19:40:30.387Z,1.20
2019-01-30T19:43:18.169Z,1.40
2019-01-30T19:46:05.953Z,1.40
2019-01-30T19:48:53.789Z,1.40
2019-01-30T19:51:41.823Z,1.30
2019-01-30T19:54:29.609Z,1.30
2019-01-30T19:57:17.243Z,1.30
2019-01-30T20:00:11.220Z,1.30
2019-01-30T20:03:00.216Z,1.30
2019-01-30T20:05:48.120Z,1.30
2019-01-30T20:08:36.212Z,1.20
2019-01-30T20:11:24.056Z,1.10
2019-01-30T20:14:11.679Z,1.10
2019-01-30T20:16:59.532Z,1.00
2019-01-30T20:19:47.337Z,0.90
2019-01-30T20:22:35.206Z,0.90
2019-01-30T20:25:28.916Z,0.90
2019-01-30T20:28:16.747Z,0.90
2019-01-30T20:31:04.836Z,0.80
2019-01-30T20:33:52.645Z,0.70
2019-01-30T20:36:40.399Z,0.80
2019-01-30T20:39:28.069Z,0.70
2019-01-30T20:42:15.624Z,0.70
2019-01-30T20:45:04.088Z,0.80
2019-01-30T20:47:52.076Z,0.70
2019-01-30T20:50:40.061Z,0.60
2019-01-30T20:53:27.592Z,0.60
2019-01-30T20:56:15.689Z,0.50
2019-01-30T20:59:03.361Z,0.10
2019-01-30T21:01:51.186Z,0.00
2019-01-30T21:04:39.020Z,-0.20
2019-01-30T21:07:36.847Z,-0.30
2019-01-30T21:10:24.928Z,-0.60
2019-01-30T21:13:12.806Z,-0.60
2019-01-30T21:16:00.687Z,-0.60
2019-01-30T21:21:36.793Z,-0.60
2019-01-30T21:24:24.480Z,-0.70
2019-01-30T21:27:12.200Z,-0.80
2019-01-30T21:29:59.845Z,-0.90
2019-01-30T21:32:47.499Z,-0.90
2019-01-30T21:35:35.325Z,-0.90
2019-01-30T21:38:22.926Z,-1.00
2019-01-30T21:41:10.457Z,-1.00
2019-01-30T21:43:57.992Z,-1.10
2019-01-30T21:46:45.960Z,-1.00
2019-01-30T21:49:33.838Z,-1.10
2019-01-30T21:52:21.511Z,-1.20
2019-01-30T21:55:12.697Z,-1.10
2019-01-30T21:58:00.645Z,-1.20
2019-01-30T22:00:48.809Z,-1.20
2019-01-30T22:03:36.342Z,-1.20
2019-01-30T22:06:23.961Z,0.80
2019-01-30T22:09:11.972Z,-1.30
2019-01-30T22:11:59.756Z,-1.30
2019-01-30T22:14:47.693Z,-1.30
2019-01-30T22:17:35.151Z,-1.40
2019-01-30T22:20:24.975Z,-1.40
2019-01-30T22:23:12.856Z,-1.40
2019-01-30T22:26:00.686Z,-1.40
2019-01-30T22:28:48.566Z,-1.40
2019-01-30T22:31:36.249Z,-1.30
2019-01-30T22:34:23.943Z,-1.30
2019-01-30T22:37:11.522Z,-1.30
2019-01-30T22:39:59.384Z,-1.40
2019-01-30T22:42:47.460Z,-1.50
2019-01-30T22:45:35.346Z,-1.30
2019-01-30T22:48:23.254Z,-1.30
2019-01-30T22:51:11.156Z,-1.40
2019-01-30T22:53:59.132Z,-1.50
2019-01-30T22:56:47.181Z,-1.60
2019-01-30T22:59:35.041Z,-1.50
2019-01-30T23:02:22.922Z,-1.50
2019-01-30T23:05:19.583Z,-1.50
2019-01-30T23:08:09.899Z,-1.60
2019-01-30T23:11:09.509Z,-1.50
2019-01-30T23:13:57.747Z,-1.50
2019-01-30T23:16:54.620Z,-1.50
2019-01-30T23:19:45.305Z,-1.60
2019-01-30T23:22:58.708Z,-1.60
2019-01-30T23:25:49.469Z,-1.60
2019-01-30T23:28:46.220Z,-1.60
2019-01-30T23:34:40.777Z,-1.70
2019-01-30T23:40:43.068Z,-1.60
2019-01-30T23:43:48.683Z,-1.60
2019-01-30T23:46:48.617Z,-1.50
2019-01-30T23:49:39.281Z,-1.70
2019-01-30T23:52:36.145Z,-1.70
2019-01-30T23:55:51.372Z,-1.70
2019-01-30T23:58:59.358Z,-1.80
